sensor_id;sensor_type;location;lat;lon;timestamp;P1;durP1;ratioP1;P2;durP2;ratioP2
34236;SDS011;20501;45.956;13.632;2024-03-23T00:56:00;9.93;;;7.18;;
34236;SDS011;20501;45.956;13.632;2024-03-23T00:58:25;10.02;;;6.45;;
34236;SDS011;20501;45.956;13.632;2024-03-23T01:00:50;11.40;;;7.05;;
34236;SDS011;20501;45.956;13.632;2024-03-23T01:03:16;16.23;;;8.95;;
34236;SDS011;20501;45.956;13.632;2024-03-23T01:05:41;14.10;;;8.30;;
34236;SDS011;20501;45.956;13.632;2024-03-23T01:08:06;14.55;;;8.70;;
34236;SDS011;20501;45.956;13.632;2024-03-23T01:10:32;12.90;;;8.15;;
34236;SDS011;20501;45.956;13.632;2024-03-23T01:12:57;10.93;;;7.57;;
34236;SDS011;20501;45.956;13.632;2024-03-23T01:15:22;13.32;;;8.02;;
34236;SDS011;20501;45.956;13.632;2024-03-23T01:17:48;13.85;;;8.85;;
34236;SDS011;20501;45.956;13.632;2024-03-23T01:20:13;14.93;;;8.70;;
34236;SDS011;20501;45.956;13.632;2024-03-23T01:22:39;18.58;;;9.05;;
34236;SDS011;20501;45.956;13.632;2024-03-23T01:25:04;15.65;;;9.27;;
34236;SDS011;20501;45.956;13.632;2024-03-23T01:27:30;15.55;;;10.00;;
34236;SDS011;20501;45.956;13.632;2024-03-23T01:29:55;18.48;;;9.57;;
34236;SDS011;20501;45.956;13.632;2024-03-23T01:32:21;14.57;;;9.38;;
34236;SDS011;20501;45.956;13.632;2024-03-23T01:34:46;13.32;;;9.25;;
34236;SDS011;20501;45.956;13.632;2024-03-23T01:37:12;15.13;;;9.50;;
34236;SDS011;20501;45.956;13.632;2024-03-23T01:39:37;16.58;;;9.65;;
34236;SDS011;20501;45.956;13.632;2024-03-23T01:42:03;18.73;;;9.82;;
34236;SDS011;20501;45.956;13.632;2024-03-23T01:44:28;15.30;;;9.27;;
34236;SDS011;20501;45.956;13.632;2024-03-23T01:46:54;16.98;;;9.20;;
34236;SDS011;20501;45.956;13.632;2024-03-23T01:49:20;14.60;;;9.38;;
34236;SDS011;20501;45.956;13.632;2024-03-23T01:51:45;14.02;;;8.45;;
34236;SDS011;20501;45.956;13.632;2024-03-23T01:54:11;13.98;;;9.13;;
34236;SDS011;20501;45.956;13.632;2024-03-23T01:56:36;17.13;;;9.15;;
34236;SDS011;20501;45.956;13.632;2024-03-23T01:59:02;14.82;;;9.07;;
34236;SDS011;20501;45.956;13.632;2024-03-23T02:01:28;12.30;;;7.70;;
34236;SDS011;20501;45.956;13.632;2024-03-23T02:03:54;16.02;;;8.20;;
34236;SDS011;20501;45.956;13.632;2024-03-23T02:06:19;16.17;;;8.43;;
34236;SDS011;20501;45.956;13.632;2024-03-23T02:08:45;16.60;;;9.40;;
34236;SDS011;20501;45.956;13.632;2024-03-23T02:11:10;13.07;;;8.18;;
34236;SDS011;20501;45.956;13.632;2024-03-23T02:13:36;13.70;;;8.35;;
34236;SDS011;20501;45.956;13.632;2024-03-23T02:16:01;18.20;;;8.65;;
34236;SDS011;20501;45.956;13.632;2024-03-23T02:18:27;14.40;;;9.30;;
34236;SDS011;20501;45.956;13.632;2024-03-23T02:20:52;11.88;;;7.38;;
34236;SDS011;20501;45.956;13.632;2024-03-23T02:23:17;17.27;;;8.35;;
34236;SDS011;20501;45.956;13.632;2024-03-23T02:25:43;14.55;;;7.93;;
34236;SDS011;20501;45.956;13.632;2024-03-23T02:28:09;15.82;;;8.13;;
34236;SDS011;20501;45.956;13.632;2024-03-23T02:30:35;12.40;;;7.40;;
34236;SDS011;20501;45.956;13.632;2024-03-23T02:33:01;14.85;;;7.28;;
34236;SDS011;20501;45.956;13.632;2024-03-23T02:35:26;12.80;;;7.47;;
34236;SDS011;20501;45.956;13.632;2024-03-23T02:37:52;13.23;;;7.50;;
34236;SDS011;20501;45.956;13.632;2024-03-23T02:40:18;11.90;;;7.93;;
34236;SDS011;20501;45.956;13.632;2024-03-23T02:42:45;13.45;;;8.40;;
34236;SDS011;20501;45.956;13.632;2024-03-23T02:45:11;13.95;;;8.43;;
34236;SDS011;20501;45.956;13.632;2024-03-23T02:47:37;10.65;;;6.85;;
34236;SDS011;20501;45.956;13.632;2024-03-23T02:50:02;14.57;;;8.23;;
34236;SDS011;20501;45.956;13.632;2024-03-23T02:52:27;14.23;;;7.65;;
34236;SDS011;20501;45.956;13.632;2024-03-23T02:54:53;14.00;;;8.00;;
34236;SDS011;20501;45.956;13.632;2024-03-23T02:57:18;12.18;;;8.05;;
34236;SDS011;20501;45.956;13.632;2024-03-23T02:59:44;14.70;;;7.97;;
34236;SDS011;20501;45.956;13.632;2024-03-23T03:02:09;12.23;;;7.35;;
34236;SDS011;20501;45.956;13.632;2024-03-23T03:04:36;13.18;;;7.72;;
34236;SDS011;20501;45.956;13.632;2024-03-23T03:07:01;14.25;;;6.95;;
34236;SDS011;20501;45.956;13.632;2024-03-23T03:09:27;15.27;;;8.20;;
34236;SDS011;20501;45.956;13.632;2024-03-23T03:11:52;10.93;;;7.53;;
34236;SDS011;20501;45.956;13.632;2024-03-23T03:14:17;16.35;;;8.40;;
34236;SDS011;20501;45.956;13.632;2024-03-23T03:16:43;13.98;;;8.38;;
34236;SDS011;20501;45.956;13.632;2024-03-23T03:19:08;11.77;;;7.15;;
34236;SDS011;20501;45.956;13.632;2024-03-23T03:21:35;10.77;;;7.25;;
34236;SDS011;20501;45.956;13.632;2024-03-23T03:24:01;15.45;;;7.78;;
34236;SDS011;20501;45.956;13.632;2024-03-23T03:26:27;11.48;;;7.65;;
34236;SDS011;20501;45.956;13.632;2024-03-23T03:28:52;13.65;;;8.07;;
34236;SDS011;20501;45.956;13.632;2024-03-23T03:31:18;17.05;;;8.27;;
34236;SDS011;20501;45.956;13.632;2024-03-23T03:33:43;13.70;;;8.05;;
34236;SDS011;20501;45.956;13.632;2024-03-23T03:36:09;14.00;;;8.15;;
34236;SDS011;20501;45.956;13.632;2024-03-23T03:38:35;17.42;;;8.10;;
34236;SDS011;20501;45.956;13.632;2024-03-23T03:41:01;12.68;;;7.43;;
34236;SDS011;20501;45.956;13.632;2024-03-23T03:43:27;12.32;;;7.32;;
34236;SDS011;20501;45.956;13.632;2024-03-23T03:45:53;14.38;;;8.70;;
34236;SDS011;20501;45.956;13.632;2024-03-23T03:48:19;11.35;;;6.82;;
34236;SDS011;20501;45.956;13.632;2024-03-23T03:50:45;13.70;;;8.32;;
34236;SDS011;20501;45.956;13.632;2024-03-23T03:53:10;12.63;;;8.18;;
34236;SDS011;20501;45.956;13.632;2024-03-23T03:55:36;14.27;;;8.20;;
34236;SDS011;20501;45.956;13.632;2024-03-23T03:58:01;15.57;;;8.60;;
34236;SDS011;20501;45.956;13.632;2024-03-23T04:00:27;16.38;;;8.90;;
34236;SDS011;20501;45.956;13.632;2024-03-23T04:02:52;16.00;;;8.55;;
34236;SDS011;20501;45.956;13.632;2024-03-23T04:05:17;19.85;;;9.20;;
34236;SDS011;20501;45.956;13.632;2024-03-23T04:07:44;16.60;;;8.25;;
34236;SDS011;20501;45.956;13.632;2024-03-23T04:10:09;15.70;;;8.30;;
34236;SDS011;20501;45.956;13.632;2024-03-23T04:12:35;14.93;;;9.15;;
34236;SDS011;20501;45.956;13.632;2024-03-23T04:15:00;16.65;;;8.27;;
34236;SDS011;20501;45.956;13.632;2024-03-23T04:17:28;16.65;;;8.57;;
34236;SDS011;20501;45.956;13.632;2024-03-23T04:19:57;14.60;;;7.82;;
34236;SDS011;20501;45.956;13.632;2024-03-23T04:22:23;22.90;;;9.48;;
34236;SDS011;20501;45.956;13.632;2024-03-23T04:24:57;17.02;;;8.68;;
34236;SDS011;20501;45.956;13.632;2024-03-23T04:27:22;19.02;;;8.82;;
34236;SDS011;20501;45.956;13.632;2024-03-23T04:29:49;19.27;;;9.18;;
34236;SDS011;20501;45.956;13.632;2024-03-23T04:32:15;18.73;;;8.35;;
34236;SDS011;20501;45.956;13.632;2024-03-23T04:34:41;17.85;;;8.48;;
34236;SDS011;20501;45.956;13.632;2024-03-23T04:37:06;11.77;;;7.90;;
34236;SDS011;20501;45.956;13.632;2024-03-23T04:39:32;17.17;;;7.45;;
34236;SDS011;20501;45.956;13.632;2024-03-23T04:41:58;16.02;;;7.68;;
34236;SDS011;20501;45.956;13.632;2024-03-23T04:44:23;19.67;;;7.18;;
34236;SDS011;20501;45.956;13.632;2024-03-23T04:46:48;19.35;;;8.07;;
34236;SDS011;20501;45.956;13.632;2024-03-23T04:49:14;13.50;;;7.57;;
34236;SDS011;20501;45.956;13.632;2024-03-23T04:51:39;16.40;;;8.35;;
34236;SDS011;20501;45.956;13.632;2024-03-23T04:56:32;14.07;;;7.75;;
34236;SDS011;20501;45.956;13.632;2024-03-23T04:58:58;17.67;;;8.95;;
34236;SDS011;20501;45.956;13.632;2024-03-23T05:01:26;14.43;;;9.20;;
34236;SDS011;20501;45.956;13.632;2024-03-23T05:03:52;32.55;;;14.95;;
34236;SDS011;20501;45.956;13.632;2024-03-23T05:06:18;19.10;;;11.23;;
34236;SDS011;20501;45.956;13.632;2024-03-23T05:08:43;17.50;;;9.60;;
34236;SDS011;20501;45.956;13.632;2024-03-23T05:11:09;14.48;;;8.65;;
34236;SDS011;20501;45.956;13.632;2024-03-23T05:13:35;15.68;;;7.93;;
34236;SDS011;20501;45.956;13.632;2024-03-23T05:16:00;16.95;;;9.10;;
34236;SDS011;20501;45.956;13.632;2024-03-23T05:18:26;12.00;;;7.38;;
34236;SDS011;20501;45.956;13.632;2024-03-23T05:23:22;15.35;;;8.15;;
34236;SDS011;20501;45.956;13.632;2024-03-23T05:25:48;24.17;;;12.68;;
34236;SDS011;20501;45.956;13.632;2024-03-23T05:28:13;24.70;;;12.07;;
34236;SDS011;20501;45.956;13.632;2024-03-23T05:30:39;12.48;;;7.50;;
34236;SDS011;20501;45.956;13.632;2024-03-23T05:33:05;15.13;;;8.13;;
34236;SDS011;20501;45.956;13.632;2024-03-23T05:35:30;21.73;;;10.30;;
34236;SDS011;20501;45.956;13.632;2024-03-23T05:37:56;23.07;;;13.67;;
34236;SDS011;20501;45.956;13.632;2024-03-23T05:40:23;13.25;;;9.10;;
34236;SDS011;20501;45.956;13.632;2024-03-23T05:42:48;78.65;;;31.02;;
34236;SDS011;20501;45.956;13.632;2024-03-23T05:45:14;33.17;;;16.00;;
34236;SDS011;20501;45.956;13.632;2024-03-23T05:47:39;13.93;;;8.57;;
34236;SDS011;20501;45.956;13.632;2024-03-23T05:50:05;14.95;;;8.05;;
34236;SDS011;20501;45.956;13.632;2024-03-23T05:52:31;14.95;;;8.80;;
34236;SDS011;20501;45.956;13.632;2024-03-23T05:54:56;19.13;;;11.57;;
34236;SDS011;20501;45.956;13.632;2024-03-23T05:57:23;17.25;;;9.48;;
34236;SDS011;20501;45.956;13.632;2024-03-23T05:59:48;14.85;;;8.48;;
34236;SDS011;20501;45.956;13.632;2024-03-23T06:02:14;19.50;;;8.52;;
34236;SDS011;20501;45.956;13.632;2024-03-23T06:04:39;14.25;;;9.00;;
34236;SDS011;20501;45.956;13.632;2024-03-23T06:07:04;13.13;;;7.97;;
34236;SDS011;20501;45.956;13.632;2024-03-23T06:09:38;18.50;;;8.10;;
34236;SDS011;20501;45.956;13.632;2024-03-23T06:12:04;20.25;;;8.95;;
34236;SDS011;20501;45.956;13.632;2024-03-23T06:14:30;13.75;;;8.10;;
34236;SDS011;20501;45.956;13.632;2024-03-23T06:16:55;20.48;;;8.73;;
34236;SDS011;20501;45.956;13.632;2024-03-23T06:19:21;12.68;;;8.52;;
34236;SDS011;20501;45.956;13.632;2024-03-23T06:21:46;14.30;;;8.77;;
34236;SDS011;20501;45.956;13.632;2024-03-23T06:24:11;16.35;;;8.52;;
34236;SDS011;20501;45.956;13.632;2024-03-23T06:26:37;20.03;;;10.50;;
34236;SDS011;20501;45.956;13.632;2024-03-23T06:29:03;17.48;;;9.30;;
34236;SDS011;20501;45.956;13.632;2024-03-23T06:31:30;14.18;;;7.97;;
34236;SDS011;20501;45.956;13.632;2024-03-23T06:33:55;17.80;;;9.90;;
34236;SDS011;20501;45.956;13.632;2024-03-23T06:36:21;21.05;;;9.50;;
34236;SDS011;20501;45.956;13.632;2024-03-23T06:38:46;18.95;;;9.50;;
34236;SDS011;20501;45.956;13.632;2024-03-23T06:41:12;18.45;;;9.70;;
34236;SDS011;20501;45.956;13.632;2024-03-23T06:43:37;17.20;;;9.75;;
34236;SDS011;20501;45.956;13.632;2024-03-23T06:46:03;19.77;;;8.93;;
34236;SDS011;20501;45.956;13.632;2024-03-23T06:48:29;14.13;;;8.68;;
34236;SDS011;20501;45.956;13.632;2024-03-23T06:50:55;13.30;;;8.50;;
34236;SDS011;20501;45.956;13.632;2024-03-23T06:53:21;14.77;;;7.65;;
34236;SDS011;20501;45.956;13.632;2024-03-23T06:55:49;12.60;;;7.85;;
34236;SDS011;20501;45.956;13.632;2024-03-23T06:58:16;14.82;;;7.05;;
34236;SDS011;20501;45.956;13.632;2024-03-23T07:00:41;10.85;;;6.35;;
34236;SDS011;20501;45.956;13.632;2024-03-23T07:03:07;16.65;;;6.78;;
34236;SDS011;20501;45.956;13.632;2024-03-23T07:05:32;9.55;;;6.03;;
34236;SDS011;20501;45.956;13.632;2024-03-23T07:07:58;10.40;;;5.40;;
34236;SDS011;20501;45.956;13.632;2024-03-23T07:10:23;11.63;;;4.95;;
34236;SDS011;20501;45.956;13.632;2024-03-23T07:12:48;9.30;;;4.78;;
34236;SDS011;20501;45.956;13.632;2024-03-23T07:15:14;6.03;;;4.50;;
34236;SDS011;20501;45.956;13.632;2024-03-23T07:17:41;10.85;;;4.63;;
34236;SDS011;20501;45.956;13.632;2024-03-23T07:20:06;9.80;;;4.97;;
34236;SDS011;20501;45.956;13.632;2024-03-23T07:22:35;9.48;;;4.72;;
34236;SDS011;20501;45.956;13.632;2024-03-23T07:25:01;10.18;;;4.80;;
34236;SDS011;20501;45.956;13.632;2024-03-23T07:27:27;7.32;;;4.53;;
34236;SDS011;20501;45.956;13.632;2024-03-23T07:29:52;8.27;;;4.15;;
34236;SDS011;20501;45.956;13.632;2024-03-23T07:32:18;8.10;;;5.50;;
34236;SDS011;20501;45.956;13.632;2024-03-23T07:34:43;9.52;;;4.97;;
34236;SDS011;20501;45.956;13.632;2024-03-23T07:37:12;6.60;;;4.30;;
34236;SDS011;20501;45.956;13.632;2024-03-23T07:39:37;7.38;;;4.50;;
34236;SDS011;20501;45.956;13.632;2024-03-23T07:42:04;9.18;;;4.25;;
34236;SDS011;20501;45.956;13.632;2024-03-23T07:44:30;8.75;;;4.20;;
34236;SDS011;20501;45.956;13.632;2024-03-23T07:46:55;9.27;;;4.63;;
34236;SDS011;20501;45.956;13.632;2024-03-23T07:49:21;12.18;;;5.22;;
34236;SDS011;20501;45.956;13.632;2024-03-23T07:51:46;16.55;;;6.30;;
34236;SDS011;20501;45.956;13.632;2024-03-23T07:54:13;10.25;;;4.88;;
34236;SDS011;20501;45.956;13.632;2024-03-23T07:56:38;8.98;;;4.55;;
34236;SDS011;20501;45.956;13.632;2024-03-23T07:59:04;10.13;;;4.82;;
34236;SDS011;20501;45.956;13.632;2024-03-23T08:01:29;8.85;;;4.55;;
34236;SDS011;20501;45.956;13.632;2024-03-23T08:03:55;5.90;;;4.43;;
34236;SDS011;20501;45.956;13.632;2024-03-23T08:06:20;12.27;;;4.55;;
34236;SDS011;20501;45.956;13.632;2024-03-23T08:08:48;6.57;;;4.78;;
34236;SDS011;20501;45.956;13.632;2024-03-23T08:11:16;7.68;;;5.18;;
34236;SDS011;20501;45.956;13.632;2024-03-23T08:13:42;7.13;;;4.95;;
34236;SDS011;20501;45.956;13.632;2024-03-23T08:16:10;6.85;;;4.57;;
34236;SDS011;20501;45.956;13.632;2024-03-23T08:18:36;6.60;;;5.20;;
34236;SDS011;20501;45.956;13.632;2024-03-23T08:21:05;9.52;;;5.00;;
34236;SDS011;20501;45.956;13.632;2024-03-23T08:23:31;10.02;;;4.45;;
34236;SDS011;20501;45.956;13.632;2024-03-23T08:28:34;10.05;;;5.05;;
34236;SDS011;20501;45.956;13.632;2024-03-23T08:31:09;9.52;;;5.43;;
34236;SDS011;20501;45.956;13.632;2024-03-23T08:33:36;11.32;;;7.07;;
34236;SDS011;20501;45.956;13.632;2024-03-23T08:36:03;9.30;;;6.00;;
34236;SDS011;20501;45.956;13.632;2024-03-23T08:38:30;11.32;;;6.57;;
34236;SDS011;20501;45.956;13.632;2024-03-23T08:40:57;10.75;;;5.88;;
34236;SDS011;20501;45.956;13.632;2024-03-23T08:43:25;10.60;;;6.38;;
34236;SDS011;20501;45.956;13.632;2024-03-23T08:45:52;9.68;;;7.05;;
34236;SDS011;20501;45.956;13.632;2024-03-23T08:48:21;11.63;;;6.63;;
34236;SDS011;20501;45.956;13.632;2024-03-23T08:50:47;10.80;;;6.50;;
34236;SDS011;20501;45.956;13.632;2024-03-23T08:53:12;13.32;;;8.38;;
34236;SDS011;20501;45.956;13.632;2024-03-23T08:55:38;13.27;;;7.35;;
34236;SDS011;20501;45.956;13.632;2024-03-23T08:58:03;13.80;;;6.90;;
34236;SDS011;20501;45.956;13.632;2024-03-23T09:00:29;12.00;;;7.80;;
34236;SDS011;20501;45.956;13.632;2024-03-23T09:02:55;16.42;;;8.65;;
34236;SDS011;20501;45.956;13.632;2024-03-23T09:05:21;16.15;;;7.13;;
34236;SDS011;20501;45.956;13.632;2024-03-23T09:07:49;13.13;;;7.93;;
34236;SDS011;20501;45.956;13.632;2024-03-23T09:10:14;20.10;;;9.40;;
34236;SDS011;20501;45.956;13.632;2024-03-23T09:12:40;13.60;;;7.95;;
34236;SDS011;20501;45.956;13.632;2024-03-23T09:15:05;13.68;;;8.60;;
34236;SDS011;20501;45.956;13.632;2024-03-23T09:17:31;17.13;;;8.70;;
34236;SDS011;20501;45.956;13.632;2024-03-23T09:19:56;13.20;;;8.07;;
34236;SDS011;20501;45.956;13.632;2024-03-23T09:22:21;13.50;;;8.27;;
34236;SDS011;20501;45.956;13.632;2024-03-23T09:24:47;16.83;;;8.38;;
34236;SDS011;20501;45.956;13.632;2024-03-23T09:27:12;11.35;;;8.02;;
34236;SDS011;20501;45.956;13.632;2024-03-23T09:29:37;17.20;;;8.20;;
34236;SDS011;20501;45.956;13.632;2024-03-23T09:32:03;13.60;;;7.93;;
34236;SDS011;20501;45.956;13.632;2024-03-23T09:34:28;14.85;;;8.95;;
34236;SDS011;20501;45.956;13.632;2024-03-23T09:36:54;14.25;;;9.35;;
34236;SDS011;20501;45.956;13.632;2024-03-23T09:39:19;20.00;;;9.57;;
34236;SDS011;20501;45.956;13.632;2024-03-23T09:41:45;14.15;;;8.75;;
34236;SDS011;20501;45.956;13.632;2024-03-23T09:44:10;12.10;;;7.72;;
34236;SDS011;20501;45.956;13.632;2024-03-23T09:46:36;14.70;;;8.27;;
34236;SDS011;20501;45.956;13.632;2024-03-23T09:49:04;15.50;;;9.05;;
34236;SDS011;20501;45.956;13.632;2024-03-23T09:51:33;18.35;;;9.35;;
34236;SDS011;20501;45.956;13.632;2024-03-23T09:54:00;17.70;;;8.55;;
34236;SDS011;20501;45.956;13.632;2024-03-23T09:56:26;18.50;;;8.50;;
34236;SDS011;20501;45.956;13.632;2024-03-23T09:58:51;15.90;;;9.68;;
34236;SDS011;20501;45.956;13.632;2024-03-23T10:01:25;14.57;;;8.82;;
34236;SDS011;20501;45.956;13.632;2024-03-23T10:03:51;17.15;;;9.20;;
34236;SDS011;20501;45.956;13.632;2024-03-23T10:06:16;14.57;;;9.55;;
34236;SDS011;20501;45.956;13.632;2024-03-23T10:08:47;14.57;;;8.80;;
34236;SDS011;20501;45.956;13.632;2024-03-23T10:11:15;15.10;;;8.23;;
34236;SDS011;20501;45.956;13.632;2024-03-23T10:13:42;14.98;;;7.97;;
34236;SDS011;20501;45.956;13.632;2024-03-23T10:18:38;12.82;;;7.20;;
34236;SDS011;20501;45.956;13.632;2024-03-23T10:21:10;11.13;;;7.50;;
34236;SDS011;20501;45.956;13.632;2024-03-23T10:23:37;11.60;;;7.10;;
34236;SDS011;20501;45.956;13.632;2024-03-23T10:26:12;9.93;;;5.75;;
34236;SDS011;20501;45.956;13.632;2024-03-23T10:31:37;8.82;;;5.40;;
34236;SDS011;20501;45.956;13.632;2024-03-23T10:34:06;8.23;;;6.05;;
34236;SDS011;20501;45.956;13.632;2024-03-23T10:36:32;8.77;;;5.30;;
34236;SDS011;20501;45.956;13.632;2024-03-23T10:41:28;9.35;;;5.38;;
34236;SDS011;20501;45.956;13.632;2024-03-23T10:43:56;9.50;;;5.88;;
34236;SDS011;20501;45.956;13.632;2024-03-23T10:46:23;8.77;;;5.18;;
34236;SDS011;20501;45.956;13.632;2024-03-23T10:48:48;8.73;;;5.10;;
34236;SDS011;20501;45.956;13.632;2024-03-23T10:51:14;7.80;;;5.15;;
34236;SDS011;20501;45.956;13.632;2024-03-23T10:53:40;6.95;;;4.22;;
34236;SDS011;20501;45.956;13.632;2024-03-23T10:56:06;7.72;;;4.15;;
34236;SDS011;20501;45.956;13.632;2024-03-23T10:58:38;9.43;;;4.05;;
34236;SDS011;20501;45.956;13.632;2024-03-23T11:01:06;7.00;;;3.55;;
34236;SDS011;20501;45.956;13.632;2024-03-23T11:03:35;5.70;;;3.70;;
34236;SDS011;20501;45.956;13.632;2024-03-23T11:06:02;8.02;;;3.53;;
34236;SDS011;20501;45.956;13.632;2024-03-23T11:13:44;7.07;;;3.40;;
34236;SDS011;20501;45.956;13.632;2024-03-23T11:16:13;4.35;;;3.05;;
34236;SDS011;20501;45.956;13.632;2024-03-23T11:19:33;5.07;;;3.30;;
34236;SDS011;20501;45.956;13.632;2024-03-23T11:22:01;9.77;;;4.07;;
34236;SDS011;20501;45.956;13.632;2024-03-23T11:24:28;4.18;;;3.25;;
34236;SDS011;20501;45.956;13.632;2024-03-23T11:26:54;5.43;;;3.17;;
34236;SDS011;20501;45.956;13.632;2024-03-23T11:29:19;5.53;;;3.10;;
34236;SDS011;20501;45.956;13.632;2024-03-23T11:31:45;7.65;;;4.32;;
34236;SDS011;20501;45.956;13.632;2024-03-23T11:34:17;6.60;;;4.82;;
34236;SDS011;20501;45.956;13.632;2024-03-23T11:36:43;7.30;;;5.40;;
34236;SDS011;20501;45.956;13.632;2024-03-23T11:39:15;7.43;;;5.00;;
34236;SDS011;20501;45.956;13.632;2024-03-23T11:41:55;9.73;;;4.35;;
34236;SDS011;20501;45.956;13.632;2024-03-23T11:44:22;6.73;;;4.17;;
34236;SDS011;20501;45.956;13.632;2024-03-23T11:46:50;9.90;;;5.18;;
34236;SDS011;20501;45.956;13.632;2024-03-23T11:51:47;16.65;;;8.13;;
34236;SDS011;20501;45.956;13.632;2024-03-23T11:54:13;13.70;;;8.00;;
34236;SDS011;20501;45.956;13.632;2024-03-23T11:56:39;11.15;;;6.82;;
34236;SDS011;20501;45.956;13.632;2024-03-23T11:59:04;10.18;;;7.22;;
34236;SDS011;20501;45.956;13.632;2024-03-23T12:01:29;12.77;;;7.25;;
34236;SDS011;20501;45.956;13.632;2024-03-23T12:03:56;12.40;;;7.18;;
34236;SDS011;20501;45.956;13.632;2024-03-23T12:06:21;14.13;;;7.47;;
34236;SDS011;20501;45.956;13.632;2024-03-23T12:08:46;11.32;;;6.90;;
34236;SDS011;20501;45.956;13.632;2024-03-23T12:11:16;19.15;;;10.77;;
34236;SDS011;20501;45.956;13.632;2024-03-23T12:13:43;14.18;;;8.05;;
34236;SDS011;20501;45.956;13.632;2024-03-23T12:18:40;14.93;;;9.27;;
34236;SDS011;20501;45.956;13.632;2024-03-23T12:21:08;16.33;;;9.48;;
34236;SDS011;20501;45.956;13.632;2024-03-23T12:23:33;15.45;;;9.43;;
34236;SDS011;20501;45.956;13.632;2024-03-23T12:25:59;16.08;;;9.68;;
34236;SDS011;20501;45.956;13.632;2024-03-23T12:28:25;18.73;;;10.93;;
34236;SDS011;20501;45.956;13.632;2024-03-23T12:30:51;22.00;;;12.02;;
34236;SDS011;20501;45.956;13.632;2024-03-23T12:33:17;18.20;;;11.43;;
34236;SDS011;20501;45.956;13.632;2024-03-23T12:35:42;22.30;;;12.73;;
34236;SDS011;20501;45.956;13.632;2024-03-23T12:38:08;18.98;;;11.20;;
34236;SDS011;20501;45.956;13.632;2024-03-23T12:40:33;18.60;;;11.80;;
34236;SDS011;20501;45.956;13.632;2024-03-23T12:42:58;18.95;;;12.48;;
34236;SDS011;20501;45.956;13.632;2024-03-23T12:45:24;19.92;;;12.27;;
34236;SDS011;20501;45.956;13.632;2024-03-23T12:47:49;19.10;;;12.07;;
34236;SDS011;20501;45.956;13.632;2024-03-23T12:50:17;17.50;;;9.88;;
34236;SDS011;20501;45.956;13.632;2024-03-23T12:52:43;17.60;;;9.38;;
34236;SDS011;20501;45.956;13.632;2024-03-23T12:55:08;23.17;;;10.38;;
34236;SDS011;20501;45.956;13.632;2024-03-23T12:57:33;16.73;;;10.40;;
34236;SDS011;20501;45.956;13.632;2024-03-23T12:59:59;20.17;;;9.85;;
34236;SDS011;20501;45.956;13.632;2024-03-23T13:02:25;16.83;;;9.27;;
34236;SDS011;20501;45.956;13.632;2024-03-23T13:04:51;13.82;;;7.68;;
34236;SDS011;20501;45.956;13.632;2024-03-23T13:09:43;13.63;;;7.40;;
34236;SDS011;20501;45.956;13.632;2024-03-23T13:12:09;11.02;;;7.38;;
34236;SDS011;20501;45.956;13.632;2024-03-23T13:14:35;17.48;;;8.77;;
34236;SDS011;20501;45.956;13.632;2024-03-23T13:17:00;11.10;;;7.65;;
34236;SDS011;20501;45.956;13.632;2024-03-23T13:19:27;14.02;;;9.57;;
34236;SDS011;20501;45.956;13.632;2024-03-23T13:21:55;14.77;;;9.13;;
34236;SDS011;20501;45.956;13.632;2024-03-23T13:24:22;16.43;;;9.50;;
34236;SDS011;20501;45.956;13.632;2024-03-23T13:26:49;12.60;;;8.63;;
34236;SDS011;20501;45.956;13.632;2024-03-23T13:29:15;13.45;;;8.30;;
34236;SDS011;20501;45.956;13.632;2024-03-23T13:31:40;20.50;;;10.40;;
34236;SDS011;20501;45.956;13.632;2024-03-23T13:34:06;16.73;;;9.80;;
34236;SDS011;20501;45.956;13.632;2024-03-23T13:36:31;16.52;;;10.80;;
34236;SDS011;20501;45.956;13.632;2024-03-23T13:38:57;19.60;;;11.25;;
34236;SDS011;20501;45.956;13.632;2024-03-23T13:41:22;18.52;;;11.05;;
34236;SDS011;20501;45.956;13.632;2024-03-23T13:43:47;19.07;;;11.27;;
34236;SDS011;20501;45.956;13.632;2024-03-23T13:46:13;18.42;;;10.73;;
34236;SDS011;20501;45.956;13.632;2024-03-23T13:48:38;19.63;;;12.23;;
34236;SDS011;20501;45.956;13.632;2024-03-23T13:51:04;19.70;;;10.70;;
34236;SDS011;20501;45.956;13.632;2024-03-23T13:53:30;16.50;;;9.30;;
34236;SDS011;20501;45.956;13.632;2024-03-23T13:55:57;12.15;;;8.00;;
34236;SDS011;20501;45.956;13.632;2024-03-23T13:58:23;14.20;;;7.87;;
34236;SDS011;20501;45.956;13.632;2024-03-23T14:00:56;11.55;;;7.72;;
34236;SDS011;20501;45.956;13.632;2024-03-23T14:03:23;13.77;;;8.95;;
34236;SDS011;20501;45.956;13.632;2024-03-23T14:05:48;16.40;;;8.63;;
34236;SDS011;20501;45.956;13.632;2024-03-23T14:08:13;12.38;;;9.15;;
34236;SDS011;20501;45.956;13.632;2024-03-23T14:10:42;13.70;;;9.50;;
34236;SDS011;20501;45.956;13.632;2024-03-23T14:13:08;14.57;;;8.60;;
34236;SDS011;20501;45.956;13.632;2024-03-23T14:15:33;16.85;;;9.23;;
34236;SDS011;20501;45.956;13.632;2024-03-23T14:17:59;17.00;;;9.23;;
34236;SDS011;20501;45.956;13.632;2024-03-23T14:20:25;18.08;;;8.85;;
34236;SDS011;20501;45.956;13.632;2024-03-23T14:22:51;17.13;;;10.10;;
34236;SDS011;20501;45.956;13.632;2024-03-23T14:25:17;13.70;;;8.48;;
34236;SDS011;20501;45.956;13.632;2024-03-23T14:27:46;15.50;;;8.30;;
34236;SDS011;20501;45.956;13.632;2024-03-23T14:30:12;17.95;;;8.80;;
34236;SDS011;20501;45.956;13.632;2024-03-23T14:32:39;14.23;;;8.05;;
34236;SDS011;20501;45.956;13.632;2024-03-23T14:35:05;13.00;;;7.72;;
34236;SDS011;20501;45.956;13.632;2024-03-23T14:37:32;13.95;;;7.90;;
34236;SDS011;20501;45.956;13.632;2024-03-23T14:39:58;11.32;;;7.80;;
34236;SDS011;20501;45.956;13.632;2024-03-23T14:42:24;12.07;;;7.70;;
34236;SDS011;20501;45.956;13.632;2024-03-23T14:44:50;12.73;;;7.47;;
34236;SDS011;20501;45.956;13.632;2024-03-23T14:47:16;11.50;;;7.13;;
34236;SDS011;20501;45.956;13.632;2024-03-23T14:49:42;16.27;;;8.23;;
34236;SDS011;20501;45.956;13.632;2024-03-23T14:52:12;11.50;;;6.80;;
34236;SDS011;20501;45.956;13.632;2024-03-23T14:54:37;16.38;;;7.90;;
34236;SDS011;20501;45.956;13.632;2024-03-23T14:57:03;12.75;;;7.78;;
34236;SDS011;20501;45.956;13.632;2024-03-23T14:59:28;17.63;;;7.32;;
34236;SDS011;20501;45.956;13.632;2024-03-23T15:01:55;15.48;;;8.15;;
34236;SDS011;20501;45.956;13.632;2024-03-23T15:04:20;14.13;;;7.72;;
34236;SDS011;20501;45.956;13.632;2024-03-23T15:06:46;10.77;;;7.13;;
34236;SDS011;20501;45.956;13.632;2024-03-23T15:09:14;12.25;;;7.68;;
34236;SDS011;20501;45.956;13.632;2024-03-23T15:11:40;17.52;;;8.40;;
34236;SDS011;20501;45.956;13.632;2024-03-23T15:14:05;14.15;;;8.48;;
34236;SDS011;20501;45.956;13.632;2024-03-23T15:16:32;12.27;;;7.60;;
34236;SDS011;20501;45.956;13.632;2024-03-23T15:18:57;14.35;;;7.53;;
34236;SDS011;20501;45.956;13.632;2024-03-23T15:21:23;11.80;;;8.25;;
34236;SDS011;20501;45.956;13.632;2024-03-23T15:23:48;15.40;;;8.07;;
34236;SDS011;20501;45.956;13.632;2024-03-23T15:26:13;14.35;;;8.98;;
34236;SDS011;20501;45.956;13.632;2024-03-23T15:28:40;15.88;;;9.77;;
34236;SDS011;20501;45.956;13.632;2024-03-23T15:31:21;19.85;;;10.15;;
34236;SDS011;20501;45.956;13.632;2024-03-23T15:33:46;16.95;;;9.50;;
34236;SDS011;20501;45.956;13.632;2024-03-23T15:36:12;17.50;;;9.55;;
34236;SDS011;20501;45.956;13.632;2024-03-23T15:38:37;15.63;;;8.93;;
34236;SDS011;20501;45.956;13.632;2024-03-23T15:41:03;18.65;;;10.60;;